createdAt,value
2022-08-25T00:02:41.726Z,18.80
2022-08-25T00:06:17.866Z,18.84
2022-08-25T00:09:40.010Z,18.84
2022-08-25T00:13:04.005Z,18.82
2022-08-25T00:16:26.411Z,18.80
2022-08-25T00:19:48.513Z,18.80
2022-08-25T00:23:10.546Z,18.81
2022-08-25T00:26:32.908Z,18.85
2022-08-25T00:29:56.104Z,18.83
2022-08-25T00:33:19.213Z,18.86
2022-08-25T00:36:41.424Z,18.81
2022-08-25T00:40:03.801Z,18.85
2022-08-25T00:43:27.849Z,18.82
2022-08-25T00:46:53.728Z,18.81
2022-08-25T00:50:17.399Z,18.67
2022-08-25T00:53:41.112Z,18.76
2022-08-25T00:57:05.627Z,18.73
2022-08-25T01:00:30.900Z,18.66
2022-08-25T01:03:54.225Z,18.62
2022-08-25T01:07:18.839Z,18.66
2022-08-25T01:10:44.225Z,18.70
2022-08-25T01:14:07.541Z,18.68
2022-08-25T01:17:36.423Z,18.65
2022-08-25T01:21:01.037Z,18.62
2022-08-25T01:24:31.553Z,18.57
2022-08-25T01:27:53.957Z,18.49
2022-08-25T01:31:23.701Z,18.46
2022-08-25T01:34:47.616Z,18.51
2022-08-25T01:38:12.208Z,18.46
2022-08-25T01:41:42.212Z,18.47
2022-08-25T01:45:04.560Z,18.43
2022-08-25T01:48:26.908Z,18.39
2022-08-25T01:51:52.773Z,18.15
2022-08-25T01:55:16.209Z,18.37
2022-08-25T01:58:41.976Z,18.35
2022-08-25T02:02:04.843Z,18.28
2022-08-25T02:05:27.678Z,18.31
2022-08-25T02:08:52.728Z,18.20
2022-08-25T02:12:16.014Z,18.22
2022-08-25T02:15:43.263Z,18.22
2022-08-25T02:19:07.491Z,18.27
2022-08-25T02:22:29.257Z,18.26
2022-08-25T02:25:51.010Z,18.25
2022-08-25T02:29:14.320Z,18.20
2022-08-25T02:32:36.121Z,18.21
2022-08-25T02:35:59.868Z,18.25
2022-08-25T02:39:21.804Z,18.22
2022-08-25T02:42:43.717Z,18.15
2022-08-25T02:46:07.333Z,18.17
2022-08-25T02:49:30.100Z,18.26
2022-08-25T02:52:52.497Z,18.20
2022-08-25T02:56:16.456Z,18.17
2022-08-25T02:59:39.317Z,18.15
2022-08-25T03:03:02.900Z,18.15
2022-08-25T03:06:25.631Z,18.12
2022-08-25T03:09:48.212Z,18.11
2022-08-25T03:13:10.086Z,18.10
2022-08-25T03:16:32.002Z,18.10
2022-08-25T03:19:56.143Z,18.10
2022-08-25T03:23:19.029Z,17.97
2022-08-25T03:26:56.405Z,18.04
2022-08-25T03:30:18.404Z,18.01
2022-08-25T03:33:40.452Z,17.92
2022-08-25T03:37:03.870Z,17.95
2022-08-25T03:40:26.465Z,17.96
2022-08-25T03:43:48.965Z,17.97
2022-08-25T03:47:10.872Z,17.95
2022-08-25T03:50:33.005Z,17.94
2022-08-25T03:53:56.916Z,17.91
2022-08-25T03:57:20.857Z,17.92
2022-08-25T04:00:43.134Z,17.84
2022-08-25T04:04:06.688Z,17.92
2022-08-25T04:07:28.926Z,17.91
2022-08-25T04:10:52.199Z,17.93
2022-08-25T04:14:16.524Z,17.93
2022-08-25T04:17:41.012Z,17.92
2022-08-25T04:21:09.244Z,17.90
2022-08-25T04:24:31.533Z,17.94
2022-08-25T04:27:55.315Z,17.96
2022-08-25T04:31:18.886Z,17.89
2022-08-25T04:34:41.476Z,17.89
2022-08-25T04:38:04.484Z,17.98
2022-08-25T04:41:28.736Z,18.00
2022-08-25T04:44:52.320Z,17.96
2022-08-25T04:48:14.604Z,17.91
2022-08-25T04:51:40.162Z,17.97
2022-08-25T04:55:01.831Z,17.99
2022-08-25T04:58:23.685Z,18.03
2022-08-25T05:01:50.201Z,18.09
2022-08-25T05:05:14.247Z,18.13
2022-08-25T05:08:36.896Z,18.15
2022-08-25T05:11:59.110Z,18.10
2022-08-25T05:15:38.506Z,18.12
2022-08-25T05:19:02.132Z,18.05
2022-08-25T05:22:24.173Z,18.00
2022-08-25T05:25:45.847Z,17.97
2022-08-25T05:29:10.977Z,17.95
2022-08-25T05:32:32.814Z,17.93
2022-08-25T05:35:56.745Z,17.90
2022-08-25T05:39:19.067Z,17.86
2022-08-25T05:42:40.939Z,17.79
2022-08-25T05:46:02.784Z,17.90
2022-08-25T05:49:24.704Z,17.77
2022-08-25T05:52:48.017Z,17.98
2022-08-25T05:56:10.495Z,17.99
2022-08-25T05:59:32.493Z,17.99
2022-08-25T06:02:54.259Z,17.95
2022-08-25T06:06:17.170Z,17.91
2022-08-25T06:09:41.348Z,17.90
2022-08-25T06:13:06.557Z,17.96
2022-08-25T06:16:28.577Z,18.11
2022-08-25T06:19:50.440Z,18.19
2022-08-25T06:23:13.093Z,18.28
2022-08-25T06:26:36.918Z,18.22
2022-08-25T06:29:59.018Z,18.37
2022-08-25T06:33:29.455Z,18.46
2022-08-25T06:36:51.720Z,18.55
2022-08-25T06:40:14.825Z,18.64
2022-08-25T06:43:38.024Z,18.72
2022-08-25T06:47:00.051Z,18.73
2022-08-25T06:50:22.129Z,18.85
2022-08-25T06:53:44.419Z,18.92
2022-08-25T06:57:07.378Z,18.96
2022-08-25T07:00:32.348Z,19.06
2022-08-25T07:03:57.956Z,19.13
2022-08-25T07:07:19.721Z,19.17
2022-08-25T07:10:41.481Z,18.91
2022-08-25T07:14:12.996Z,19.03
2022-08-25T07:17:36.581Z,18.98
2022-08-25T07:20:59.309Z,18.96
2022-08-25T07:24:21.827Z,18.97
2022-08-25T07:27:43.729Z,18.98
2022-08-25T07:31:06.007Z,19.03
2022-08-25T07:35:05.121Z,19.17
2022-08-25T07:38:27.129Z,19.24
2022-08-25T07:41:52.166Z,19.27
2022-08-25T07:45:17.321Z,19.34
2022-08-25T07:48:43.196Z,19.39
2022-08-25T07:52:16.604Z,19.51
2022-08-25T07:55:39.552Z,19.48
2022-08-25T07:59:01.401Z,19.52
2022-08-25T08:02:24.792Z,19.58
2022-08-25T08:05:46.898Z,19.68
2022-08-25T08:09:13.991Z,19.72
2022-08-25T08:12:36.727Z,19.94
2022-08-25T08:15:58.995Z,20.05
2022-08-25T08:19:23.138Z,20.19
2022-08-25T08:22:46.321Z,20.30
2022-08-25T08:26:10.346Z,20.41
2022-08-25T08:29:32.721Z,20.43
2022-08-25T08:33:11.837Z,20.43
2022-08-25T08:36:34.683Z,20.45
2022-08-25T08:39:56.742Z,20.51
2022-08-25T08:43:21.240Z,20.59
2022-08-25T08:46:57.135Z,20.69
2022-08-25T08:50:30.830Z,20.89
2022-08-25T08:53:58.404Z,20.99
2022-08-25T08:57:26.652Z,21.00
2022-08-25T09:00:55.862Z,21.11
2022-08-25T09:04:24.682Z,21.24
2022-08-25T09:07:53.376Z,21.39
2022-08-25T09:11:30.548Z,21.51
2022-08-25T09:15:12.277Z,21.80
2022-08-25T09:18:50.896Z,21.81
2022-08-25T09:22:36.018Z,21.66
2022-08-25T09:26:04.800Z,21.48
2022-08-25T09:29:34.165Z,21.48
2022-08-25T09:33:05.190Z,21.49
2022-08-25T09:36:30.136Z,21.59
2022-08-25T09:39:53.367Z,21.69
2022-08-25T09:43:23.896Z,21.84
2022-08-25T09:47:02.027Z,22.04
2022-08-25T09:50:24.061Z,22.09
2022-08-25T09:53:51.871Z,22.13
2022-08-25T09:57:29.927Z,22.33
2022-08-25T10:01:16.579Z,22.37
2022-08-25T10:04:40.890Z,22.09
2022-08-25T10:08:11.558Z,22.05
2022-08-25T10:11:41.913Z,22.00
2022-08-25T10:15:29.180Z,22.17
2022-08-25T10:19:07.301Z,22.24
2022-08-25T10:22:32.655Z,22.23
2022-08-25T10:25:59.151Z,22.20
2022-08-25T10:29:40.867Z,22.24
2022-08-25T10:33:13.496Z,22.24
2022-08-25T10:36:49.053Z,22.27
2022-08-25T10:40:20.992Z,22.30
2022-08-25T10:43:51.061Z,22.46
2022-08-25T10:47:40.341Z,22.41
2022-08-25T10:51:18.671Z,22.64
2022-08-25T10:54:48.081Z,22.68
2022-08-25T10:58:24.433Z,22.80
2022-08-25T11:02:11.514Z,22.65
2022-08-25T11:05:40.478Z,22.59
2022-08-25T11:09:07.053Z,22.66
2022-08-25T11:12:33.589Z,22.81
2022-08-25T11:16:16.474Z,22.94
2022-08-25T11:19:44.092Z,23.01
2022-08-25T11:23:17.140Z,22.97
2022-08-25T11:26:43.678Z,22.90
2022-08-25T11:30:08.744Z,22.76
2022-08-25T11:33:33.293Z,22.75
2022-08-25T11:37:01.185Z,22.97
2022-08-25T11:40:45.727Z,23.02
2022-08-25T11:44:51.828Z,23.08
2022-08-25T11:48:26.686Z,23.07
2022-08-25T11:51:51.785Z,23.19
2022-08-25T11:55:15.904Z,23.24
2022-08-25T11:58:46.015Z,23.19
2022-08-25T12:02:08.275Z,23.17
2022-08-25T12:05:53.471Z,23.19
2022-08-25T12:09:23.291Z,23.19
2022-08-25T12:13:23.241Z,23.22
2022-08-25T12:17:06.386Z,23.28
2022-08-25T12:21:07.279Z,23.26
2022-08-25T12:24:50.860Z,23.29
2022-08-25T12:28:48.202Z,23.33
2022-08-25T12:32:37.159Z,23.37
2022-08-25T12:36:01.177Z,23.45
2022-08-25T12:39:30.502Z,23.54
2022-08-25T12:43:04.863Z,23.62
2022-08-25T12:46:40.297Z,23.68
2022-08-25T12:50:40.150Z,23.76
2022-08-25T12:54:19.001Z,23.74
2022-08-25T12:57:48.537Z,23.82
2022-08-25T13:01:29.318Z,23.84
2022-08-25T13:05:22.802Z,23.79
2022-08-25T13:09:29.314Z,23.75
2022-08-25T13:12:57.018Z,23.77
2022-08-25T13:16:23.717Z,23.84
2022-08-25T13:19:48.847Z,23.93
2022-08-25T13:23:10.944Z,23.95
2022-08-25T13:26:47.121Z,23.95
2022-08-25T13:30:25.023Z,23.93
2022-08-25T13:33:55.203Z,23.83
2022-08-25T13:37:33.401Z,23.76
2022-08-25T13:41:03.821Z,23.75
2022-08-25T13:44:36.377Z,23.81
2022-08-25T13:47:58.430Z,23.87
2022-08-25T13:51:24.525Z,24.02
2022-08-25T13:54:58.476Z,24.14
2022-08-25T13:58:24.379Z,24.21
2022-08-25T14:01:50.329Z,24.24
2022-08-25T14:05:14.477Z,24.29
2022-08-25T14:08:38.636Z,24.27
2022-08-25T14:12:00.463Z,24.21
2022-08-25T14:15:34.019Z,24.16
2022-08-25T14:19:00.894Z,24.06
2022-08-25T14:22:23.678Z,23.94
2022-08-25T14:25:47.670Z,23.85
2022-08-25T14:29:09.871Z,23.87
2022-08-25T14:32:32.111Z,23.88
2022-08-25T14:35:59.202Z,23.99
2022-08-25T14:39:22.004Z,24.15
2022-08-25T14:42:43.873Z,24.20
2022-08-25T14:46:20.177Z,24.27
2022-08-25T14:49:45.946Z,24.26
2022-08-25T14:53:09.705Z,24.28
2022-08-25T14:56:32.268Z,24.27
2022-08-25T14:59:54.585Z,24.19
2022-08-25T15:03:19.462Z,24.08
2022-08-25T15:06:43.779Z,24.00
2022-08-25T15:10:07.941Z,23.92
2022-08-25T15:13:29.960Z,23.87
2022-08-25T15:16:56.025Z,23.83
2022-08-25T15:20:17.619Z,23.65
2022-08-25T15:23:39.760Z,23.59
2022-08-25T15:27:09.981Z,23.61
2022-08-25T15:30:32.890Z,23.55
2022-08-25T15:33:55.040Z,23.53
2022-08-25T15:37:17.974Z,23.61
2022-08-25T15:40:40.374Z,23.64
2022-08-25T15:44:04.303Z,23.77
2022-08-25T15:47:26.340Z,23.82
2022-08-25T15:50:56.110Z,23.84
2022-08-25T15:54:18.246Z,23.86
2022-08-25T15:57:41.181Z,23.81
2022-08-25T16:01:06.042Z,23.65
2022-08-25T16:04:31.498Z,23.46
2022-08-25T16:07:53.651Z,23.06
2022-08-25T16:11:21.535Z,22.93
2022-08-25T16:14:43.568Z,22.76
2022-08-25T16:18:08.217Z,22.52
2022-08-25T16:21:35.498Z,22.45
2022-08-25T16:25:04.783Z,22.33
2022-08-25T16:28:28.515Z,22.37
2022-08-25T16:31:53.177Z,22.16
2022-08-25T16:35:17.053Z,22.14
2022-08-25T16:38:40.768Z,21.93
2022-08-25T16:42:02.999Z,21.86
2022-08-25T16:45:25.134Z,21.68
2022-08-25T16:48:48.864Z,21.54
2022-08-25T16:52:28.599Z,21.38
2022-08-25T16:55:50.979Z,21.24
2022-08-25T16:59:14.280Z,21.12
2022-08-25T17:02:36.524Z,20.89
2022-08-25T17:06:00.958Z,20.84
2022-08-25T17:09:24.377Z,20.67
2022-08-25T17:12:46.303Z,20.62
2022-08-25T17:16:08.603Z,20.44
2022-08-25T17:19:30.513Z,20.30
2022-08-25T17:22:53.040Z,20.19
2022-08-25T17:26:17.846Z,19.96
2022-08-25T17:29:40.977Z,19.90
2022-08-25T17:33:03.204Z,19.68
2022-08-25T17:36:26.923Z,19.59
2022-08-25T17:39:50.577Z,19.49
2022-08-25T17:43:20.341Z,19.28
2022-08-25T17:46:47.530Z,19.22
2022-08-25T17:50:10.561Z,19.08
2022-08-25T17:53:34.891Z,18.84
2022-08-25T17:56:56.923Z,18.79
2022-08-25T18:00:22.190Z,18.61
2022-08-25T18:03:44.455Z,18.62
2022-08-25T18:07:08.777Z,18.47
2022-08-25T18:10:31.834Z,18.30
2022-08-25T18:13:54.918Z,18.23
2022-08-25T18:17:21.862Z,18.11
2022-08-25T18:20:45.819Z,17.94
2022-08-25T18:24:09.283Z,17.88
2022-08-25T18:27:31.313Z,17.78
2022-08-25T18:30:53.278Z,17.64
2022-08-25T18:34:16.616Z,17.52
2022-08-25T18:37:58.475Z,17.42
2022-08-25T18:41:21.560Z,17.31
2022-08-25T18:44:46.688Z,17.21
2022-08-25T18:48:12.397Z,17.14
2022-08-25T18:51:38.201Z,17.06
2022-08-25T18:55:01.240Z,16.97
2022-08-25T18:58:24.612Z,16.79
2022-08-25T19:01:47.475Z,16.78
2022-08-25T19:05:10.756Z,16.62
2022-08-25T19:08:34.312Z,16.61
2022-08-25T19:11:57.247Z,16.51
2022-08-25T19:15:19.405Z,16.41
2022-08-25T19:18:46.929Z,16.36
2022-08-25T19:22:31.775Z,16.27
2022-08-25T19:25:53.023Z,16.21
2022-08-25T19:29:18.483Z,16.08
2022-08-25T19:32:42.757Z,15.86
2022-08-25T19:36:06.456Z,15.98
2022-08-25T19:39:30.810Z,15.93
2022-08-25T19:42:55.903Z,15.87
2022-08-25T19:46:19.634Z,15.88
2022-08-25T19:49:41.856Z,15.86
2022-08-25T19:53:03.701Z,15.87
2022-08-25T19:56:25.554Z,15.83
2022-08-25T19:59:49.639Z,15.82
2022-08-25T20:03:13.548Z,15.85
2022-08-25T20:06:36.918Z,15.87
2022-08-25T20:10:00.334Z,15.89
2022-08-25T20:13:22.258Z,15.85
2022-08-25T20:16:47.832Z,15.80
2022-08-25T20:20:16.938Z,15.83
2022-08-25T20:23:56.251Z,15.81
2022-08-25T20:27:20.416Z,15.83
2022-08-25T20:30:45.511Z,15.82
2022-08-25T20:34:08.987Z,15.83
2022-08-25T20:37:30.939Z,15.72
2022-08-25T20:40:53.067Z,15.77
2022-08-25T20:44:15.471Z,15.78
2022-08-25T20:47:37.561Z,15.83
2022-08-25T20:51:05.030Z,15.78
2022-08-25T20:54:27.384Z,15.78
2022-08-25T20:57:50.143Z,15.64
2022-08-25T21:01:20.363Z,15.72
2022-08-25T21:04:50.006Z,15.67
2022-08-25T21:08:14.712Z,15.72
2022-08-25T21:11:38.215Z,15.74
2022-08-25T21:15:02.139Z,15.74
2022-08-25T21:18:26.670Z,15.71
2022-08-25T21:21:52.403Z,15.72
2022-08-25T21:25:15.955Z,15.71
2022-08-25T21:28:37.932Z,15.66
2022-08-25T21:32:09.843Z,15.60
2022-08-25T21:35:31.994Z,15.59
2022-08-25T21:38:55.093Z,15.63
2022-08-25T21:42:18.631Z,15.59
2022-08-25T21:45:44.493Z,15.61
2022-08-25T21:49:10.332Z,15.62
2022-08-25T21:52:32.425Z,15.64
2022-08-25T21:55:55.596Z,15.67
2022-08-25T21:59:24.149Z,15.56
2022-08-25T22:02:47.104Z,15.68
2022-08-25T22:06:10.431Z,15.63
2022-08-25T22:09:34.222Z,15.66
2022-08-25T22:12:56.208Z,15.66
2022-08-25T22:16:21.469Z,15.67
2022-08-25T22:19:43.850Z,15.68
2022-08-25T22:23:06.234Z,15.71
2022-08-25T22:26:30.290Z,15.70
2022-08-25T22:29:53.547Z,15.73
2022-08-25T22:33:17.141Z,15.74
2022-08-25T22:36:40.431Z,15.68
2022-08-25T22:40:02.975Z,15.67
2022-08-25T22:43:25.270Z,15.63
2022-08-25T22:46:47.184Z,15.63
2022-08-25T22:50:11.406Z,15.55
2022-08-25T22:53:33.231Z,15.56
2022-08-25T22:56:55.466Z,15.48
2022-08-25T23:00:19.161Z,15.59
2022-08-25T23:03:44.507Z,15.61
2022-08-25T23:07:08.276Z,15.62
2022-08-25T23:10:32.678Z,15.53
2022-08-25T23:13:56.343Z,15.66
2022-08-25T23:17:18.992Z,15.69
2022-08-25T23:20:58.530Z,15.73
2022-08-25T23:24:29.300Z,15.73
2022-08-25T23:27:52.227Z,15.70
2022-08-25T23:31:16.125Z,15.69
2022-08-25T23:34:39.873Z,15.71
2022-08-25T23:38:01.987Z,15.69
2022-08-25T23:41:26.621Z,15.69
2022-08-25T23:44:49.350Z,15.64
2022-08-25T23:48:12.646Z,15.54
2022-08-25T23:51:41.695Z,15.69
2022-08-25T23:55:03.616Z,15.65
2022-08-25T23:58:28.551Z,15.60
